sensor_id;sensor_type;location;lat;lon;timestamp;P1;durP1;ratioP1;P2;durP2;ratioP2
3433;SDS011;1730;41.932;25.548;2023-09-18T00:00:42;4.03;;;3.47;;
3433;SDS011;1730;41.932;25.548;2023-09-18T00:03:09;3.83;;;3.50;;
3433;SDS011;1730;41.932;25.548;2023-09-18T00:05:35;5.50;;;3.17;;
3433;SDS011;1730;41.932;25.548;2023-09-18T00:08:00;3.80;;;3.37;;
3433;SDS011;1730;41.932;25.548;2023-09-18T00:10:27;6.67;;;3.80;;
3433;SDS011;1730;41.932;25.548;2023-09-18T00:12:54;8.07;;;4.00;;
3433;SDS011;1730;41.932;25.548;2023-09-18T00:15:20;13.70;;;3.67;;
3433;SDS011;1730;41.932;25.548;2023-09-18T00:17:46;4.77;;;3.73;;
3433;SDS011;1730;41.932;25.548;2023-09-18T00:20:11;6.30;;;3.40;;
3433;SDS011;1730;41.932;25.548;2023-09-18T00:22:38;3.53;;;3.23;;
3433;SDS011;1730;41.932;25.548;2023-09-18T00:25:04;4.80;;;4.30;;
3433;SDS011;1730;41.932;25.548;2023-09-18T00:27:30;4.20;;;3.80;;
3433;SDS011;1730;41.932;25.548;2023-09-18T00:29:57;12.30;;;4.00;;
3433;SDS011;1730;41.932;25.548;2023-09-18T00:32:23;4.00;;;3.70;;
3433;SDS011;1730;41.932;25.548;2023-09-18T00:34:49;4.97;;;3.33;;
3433;SDS011;1730;41.932;25.548;2023-09-18T00:37:15;4.23;;;3.80;;
3433;SDS011;1730;41.932;25.548;2023-09-18T00:39:42;5.67;;;4.00;;
3433;SDS011;1730;41.932;25.548;2023-09-18T00:42:09;7.07;;;3.70;;
3433;SDS011;1730;41.932;25.548;2023-09-18T00:44:38;4.00;;;3.47;;
3433;SDS011;1730;41.932;25.548;2023-09-18T00:47:10;4.37;;;3.60;;
3433;SDS011;1730;41.932;25.548;2023-09-18T00:49:36;8.00;;;3.90;;
3433;SDS011;1730;41.932;25.548;2023-09-18T00:52:06;3.57;;;3.27;;
3433;SDS011;1730;41.932;25.548;2023-09-18T00:54:34;7.53;;;3.87;;
3433;SDS011;1730;41.932;25.548;2023-09-18T00:57:01;4.17;;;3.13;;
3433;SDS011;1730;41.932;25.548;2023-09-18T00:59:27;4.07;;;3.70;;
3433;SDS011;1730;41.932;25.548;2023-09-18T01:01:53;4.20;;;3.90;;
3433;SDS011;1730;41.932;25.548;2023-09-18T01:04:19;3.67;;;3.37;;
3433;SDS011;1730;41.932;25.548;2023-09-18T01:06:45;3.87;;;3.57;;
3433;SDS011;1730;41.932;25.548;2023-09-18T01:09:10;6.87;;;4.00;;
3433;SDS011;1730;41.932;25.548;2023-09-18T01:14:35;4.00;;;3.20;;
3433;SDS011;1730;41.932;25.548;2023-09-18T01:17:03;4.73;;;3.83;;
3433;SDS011;1730;41.932;25.548;2023-09-18T01:19:43;3.20;;;3.00;;
3433;SDS011;1730;41.932;25.548;2023-09-18T01:22:12;3.63;;;3.30;;
3433;SDS011;1730;41.932;25.548;2023-09-18T01:24:39;5.40;;;3.80;;
3433;SDS011;1730;41.932;25.548;2023-09-18T01:27:13;6.37;;;3.80;;
3433;SDS011;1730;41.932;25.548;2023-09-18T01:29:47;3.73;;;3.43;;
3433;SDS011;1730;41.932;25.548;2023-09-18T01:32:13;5.23;;;3.60;;
3433;SDS011;1730;41.932;25.548;2023-09-18T01:34:40;4.97;;;3.50;;
3433;SDS011;1730;41.932;25.548;2023-09-18T01:37:12;6.20;;;3.27;;
3433;SDS011;1730;41.932;25.548;2023-09-18T01:39:40;3.90;;;3.60;;
3433;SDS011;1730;41.932;25.548;2023-09-18T01:42:06;5.43;;;3.40;;
3433;SDS011;1730;41.932;25.548;2023-09-18T01:44:35;3.50;;;3.30;;
3433;SDS011;1730;41.932;25.548;2023-09-18T01:47:09;4.47;;;3.93;;
3433;SDS011;1730;41.932;25.548;2023-09-18T01:49:38;6.47;;;4.20;;
3433;SDS011;1730;41.932;25.548;2023-09-18T01:52:05;4.13;;;3.77;;
3433;SDS011;1730;41.932;25.548;2023-09-18T01:54:33;6.20;;;3.40;;
3433;SDS011;1730;41.932;25.548;2023-09-18T01:56:59;11.03;;;3.30;;
3433;SDS011;1730;41.932;25.548;2023-09-18T01:59:25;5.70;;;3.60;;
3433;SDS011;1730;41.932;25.548;2023-09-18T02:01:51;9.17;;;4.20;;
3433;SDS011;1730;41.932;25.548;2023-09-18T02:04:20;7.40;;;3.87;;
3433;SDS011;1730;41.932;25.548;2023-09-18T02:06:46;11.13;;;3.87;;
3433;SDS011;1730;41.932;25.548;2023-09-18T02:09:12;7.37;;;3.77;;
3433;SDS011;1730;41.932;25.548;2023-09-18T02:11:39;5.60;;;3.60;;
3433;SDS011;1730;41.932;25.548;2023-09-18T02:14:05;7.53;;;3.73;;
3433;SDS011;1730;41.932;25.548;2023-09-18T02:16:34;5.87;;;3.80;;
3433;SDS011;1730;41.932;25.548;2023-09-18T02:19:04;6.30;;;3.80;;
3433;SDS011;1730;41.932;25.548;2023-09-18T02:21:30;5.83;;;3.40;;
3433;SDS011;1730;41.932;25.548;2023-09-18T02:23:56;4.30;;;4.00;;
3433;SDS011;1730;41.932;25.548;2023-09-18T02:26:23;5.53;;;4.13;;
3433;SDS011;1730;41.932;25.548;2023-09-18T02:28:51;3.93;;;3.63;;
3433;SDS011;1730;41.932;25.548;2023-09-18T02:31:18;4.20;;;3.40;;
3433;SDS011;1730;41.932;25.548;2023-09-18T02:33:43;10.40;;;3.50;;
3433;SDS011;1730;41.932;25.548;2023-09-18T02:36:09;4.40;;;4.00;;
3433;SDS011;1730;41.932;25.548;2023-09-18T02:38:34;4.67;;;3.73;;
3433;SDS011;1730;41.932;25.548;2023-09-18T02:41:00;6.63;;;3.70;;
3433;SDS011;1730;41.932;25.548;2023-09-18T02:43:26;4.40;;;4.07;;
3433;SDS011;1730;41.932;25.548;2023-09-18T02:45:53;4.57;;;4.03;;
3433;SDS011;1730;41.932;25.548;2023-09-18T02:48:18;6.80;;;3.97;;
3433;SDS011;1730;41.932;25.548;2023-09-18T02:50:44;5.13;;;3.70;;
3433;SDS011;1730;41.932;25.548;2023-09-18T02:53:17;6.03;;;3.90;;
3433;SDS011;1730;41.932;25.548;2023-09-18T02:55:46;6.10;;;4.00;;
3433;SDS011;1730;41.932;25.548;2023-09-18T02:58:12;6.53;;;4.57;;
3433;SDS011;1730;41.932;25.548;2023-09-18T03:00:41;5.20;;;4.23;;
3433;SDS011;1730;41.932;25.548;2023-09-18T03:03:09;10.33;;;4.20;;
3433;SDS011;1730;41.932;25.548;2023-09-18T03:05:35;4.70;;;3.87;;
3433;SDS011;1730;41.932;25.548;2023-09-18T03:08:01;4.80;;;4.10;;
3433;SDS011;1730;41.932;25.548;2023-09-18T03:10:27;5.60;;;4.13;;
3433;SDS011;1730;41.932;25.548;2023-09-18T03:12:53;9.40;;;4.40;;
3433;SDS011;1730;41.932;25.548;2023-09-18T03:15:19;4.23;;;3.67;;
3433;SDS011;1730;41.932;25.548;2023-09-18T03:17:44;7.50;;;4.67;;
3433;SDS011;1730;41.932;25.548;2023-09-18T03:20:10;7.60;;;4.57;;
3433;SDS011;1730;41.932;25.548;2023-09-18T03:22:36;10.53;;;4.40;;
3433;SDS011;1730;41.932;25.548;2023-09-18T03:25:01;4.83;;;4.40;;
3433;SDS011;1730;41.932;25.548;2023-09-18T03:30:03;6.03;;;4.13;;
3433;SDS011;1730;41.932;25.548;2023-09-18T03:32:29;9.10;;;4.37;;
3433;SDS011;1730;41.932;25.548;2023-09-18T03:34:55;5.70;;;4.70;;
3433;SDS011;1730;41.932;25.548;2023-09-18T03:37:21;6.23;;;4.63;;
3433;SDS011;1730;41.932;25.548;2023-09-18T03:42:20;6.10;;;4.13;;
3433;SDS011;1730;41.932;25.548;2023-09-18T03:44:46;10.63;;;5.10;;
3433;SDS011;1730;41.932;25.548;2023-09-18T03:47:14;10.93;;;6.60;;
3433;SDS011;1730;41.932;25.548;2023-09-18T03:49:39;6.70;;;5.97;;
3433;SDS011;1730;41.932;25.548;2023-09-18T03:52:18;4.20;;;3.80;;
3433;SDS011;1730;41.932;25.548;2023-09-18T03:54:47;7.87;;;4.60;;
3433;SDS011;1730;41.932;25.548;2023-09-18T03:57:12;4.80;;;4.30;;
3433;SDS011;1730;41.932;25.548;2023-09-18T03:59:40;6.43;;;3.77;;
3433;SDS011;1730;41.932;25.548;2023-09-18T04:02:05;5.57;;;4.87;;
3433;SDS011;1730;41.932;25.548;2023-09-18T04:04:31;7.77;;;4.60;;
3433;SDS011;1730;41.932;25.548;2023-09-18T04:06:57;8.10;;;4.53;;
3433;SDS011;1730;41.932;25.548;2023-09-18T04:09:23;4.80;;;3.97;;
3433;SDS011;1730;41.932;25.548;2023-09-18T04:11:48;6.80;;;3.83;;
3433;SDS011;1730;41.932;25.548;2023-09-18T04:14:14;4.80;;;4.20;;
3433;SDS011;1730;41.932;25.548;2023-09-18T04:16:42;11.93;;;5.23;;
3433;SDS011;1730;41.932;25.548;2023-09-18T04:19:09;13.27;;;4.97;;
3433;SDS011;1730;41.932;25.548;2023-09-18T04:21:35;8.03;;;4.97;;
3433;SDS011;1730;41.932;25.548;2023-09-18T04:24:01;7.03;;;4.93;;
3433;SDS011;1730;41.932;25.548;2023-09-18T04:26:27;7.03;;;5.00;;
3433;SDS011;1730;41.932;25.548;2023-09-18T04:28:56;8.77;;;5.03;;
3433;SDS011;1730;41.932;25.548;2023-09-18T04:31:22;7.20;;;5.50;;
3433;SDS011;1730;41.932;25.548;2023-09-18T04:33:48;4.87;;;4.47;;
3433;SDS011;1730;41.932;25.548;2023-09-18T04:36:15;7.23;;;5.10;;
3433;SDS011;1730;41.932;25.548;2023-09-18T04:38:40;9.67;;;5.50;;
3433;SDS011;1730;41.932;25.548;2023-09-18T04:41:06;10.33;;;4.80;;
3433;SDS011;1730;41.932;25.548;2023-09-18T04:43:36;6.70;;;4.60;;
3433;SDS011;1730;41.932;25.548;2023-09-18T04:46:03;6.47;;;4.63;;
3433;SDS011;1730;41.932;25.548;2023-09-18T04:48:30;11.40;;;4.90;;
3433;SDS011;1730;41.932;25.548;2023-09-18T04:50:56;10.57;;;5.70;;
3433;SDS011;1730;41.932;25.548;2023-09-18T04:53:23;8.20;;;5.13;;
3433;SDS011;1730;41.932;25.548;2023-09-18T04:55:49;13.23;;;8.17;;
3433;SDS011;1730;41.932;25.548;2023-09-18T04:58:17;17.23;;;8.97;;
3433;SDS011;1730;41.932;25.548;2023-09-18T05:00:43;24.03;;;11.63;;
3433;SDS011;1730;41.932;25.548;2023-09-18T05:03:09;45.77;;;29.57;;
3433;SDS011;1730;41.932;25.548;2023-09-18T05:05:36;40.20;;;28.30;;
3433;SDS011;1730;41.932;25.548;2023-09-18T05:08:05;53.73;;;31.93;;
3433;SDS011;1730;41.932;25.548;2023-09-18T05:10:33;48.50;;;33.17;;
3433;SDS011;1730;41.932;25.548;2023-09-18T05:12:59;42.43;;;27.90;;
3433;SDS011;1730;41.932;25.548;2023-09-18T05:15:25;34.53;;;24.83;;
3433;SDS011;1730;41.932;25.548;2023-09-18T05:17:51;45.47;;;21.97;;
3433;SDS011;1730;41.932;25.548;2023-09-18T05:20:20;32.30;;;23.30;;
3433;SDS011;1730;41.932;25.548;2023-09-18T05:22:49;40.33;;;23.77;;
3433;SDS011;1730;41.932;25.548;2023-09-18T05:25:15;32.97;;;21.10;;
3433;SDS011;1730;41.932;25.548;2023-09-18T05:27:41;25.57;;;18.90;;
3433;SDS011;1730;41.932;25.548;2023-09-18T05:30:10;21.50;;;15.47;;
3433;SDS011;1730;41.932;25.548;2023-09-18T05:32:37;35.87;;;19.17;;
3433;SDS011;1730;41.932;25.548;2023-09-18T05:35:03;5.60;;;5.10;;
3433;SDS011;1730;41.932;25.548;2023-09-18T05:37:32;5.67;;;5.07;;
3433;SDS011;1730;41.932;25.548;2023-09-18T05:39:59;8.17;;;6.60;;
3433;SDS011;1730;41.932;25.548;2023-09-18T05:42:25;10.77;;;9.13;;
3433;SDS011;1730;41.932;25.548;2023-09-18T05:44:51;10.53;;;7.50;;
3433;SDS011;1730;41.932;25.548;2023-09-18T05:47:16;17.80;;;8.57;;
3433;SDS011;1730;41.932;25.548;2023-09-18T05:49:42;5.83;;;5.37;;
3433;SDS011;1730;41.932;25.548;2023-09-18T06:04:59;12.17;;;9.33;;
3433;SDS011;1730;41.932;25.548;2023-09-18T06:07:26;18.47;;;9.07;;
3433;SDS011;1730;41.932;25.548;2023-09-18T06:09:52;15.13;;;10.70;;
3433;SDS011;1730;41.932;25.548;2023-09-18T06:12:18;9.10;;;7.80;;
3433;SDS011;1730;41.932;25.548;2023-09-18T06:14:44;9.70;;;7.30;;
3433;SDS011;1730;41.932;25.548;2023-09-18T06:17:12;8.80;;;8.00;;
3433;SDS011;1730;41.932;25.548;2023-09-18T06:19:37;9.63;;;7.80;;
3433;SDS011;1730;41.932;25.548;2023-09-18T06:22:04;9.90;;;7.10;;
3433;SDS011;1730;41.932;25.548;2023-09-18T06:24:29;8.53;;;5.80;;
3433;SDS011;1730;41.932;25.548;2023-09-18T06:26:55;5.00;;;4.60;;
3433;SDS011;1730;41.932;25.548;2023-09-18T06:29:20;5.63;;;4.87;;
3433;SDS011;1730;41.932;25.548;2023-09-18T06:31:49;7.23;;;4.40;;
3433;SDS011;1730;41.932;25.548;2023-09-18T06:34:14;4.93;;;4.27;;
3433;SDS011;1730;41.932;25.548;2023-09-18T06:36:40;7.87;;;4.27;;
3433;SDS011;1730;41.932;25.548;2023-09-18T06:39:07;6.73;;;4.20;;
3433;SDS011;1730;41.932;25.548;2023-09-18T06:41:32;8.23;;;3.90;;
3433;SDS011;1730;41.932;25.548;2023-09-18T06:43:59;4.10;;;3.80;;
3433;SDS011;1730;41.932;25.548;2023-09-18T06:46:28;5.67;;;4.30;;
3433;SDS011;1730;41.932;25.548;2023-09-18T06:48:53;4.07;;;3.13;;
3433;SDS011;1730;41.932;25.548;2023-09-18T06:51:19;7.13;;;3.50;;
3433;SDS011;1730;41.932;25.548;2023-09-18T06:53:44;4.77;;;3.30;;
3433;SDS011;1730;41.932;25.548;2023-09-18T06:56:10;6.03;;;3.10;;
3433;SDS011;1730;41.932;25.548;2023-09-18T06:58:38;3.77;;;3.43;;
3433;SDS011;1730;41.932;25.548;2023-09-18T07:01:04;7.60;;;4.07;;
3433;SDS011;1730;41.932;25.548;2023-09-18T07:03:32;9.07;;;3.50;;
3433;SDS011;1730;41.932;25.548;2023-09-18T07:05:59;3.50;;;3.20;;
3433;SDS011;1730;41.932;25.548;2023-09-18T07:08:25;4.13;;;3.67;;
3433;SDS011;1730;41.932;25.548;2023-09-18T07:10:53;4.63;;;3.87;;
3433;SDS011;1730;41.932;25.548;2023-09-18T07:13:19;4.10;;;3.80;;
3433;SDS011;1730;41.932;25.548;2023-09-18T07:15:44;5.10;;;3.50;;
3433;SDS011;1730;41.932;25.548;2023-09-18T07:18:10;3.80;;;3.50;;
3433;SDS011;1730;41.932;25.548;2023-09-18T07:20:43;3.43;;;3.23;;
3433;SDS011;1730;41.932;25.548;2023-09-18T07:23:08;3.57;;;3.23;;
3433;SDS011;1730;41.932;25.548;2023-09-18T07:25:34;5.07;;;3.60;;
3433;SDS011;1730;41.932;25.548;2023-09-18T07:27:59;4.70;;;3.37;;
3433;SDS011;1730;41.932;25.548;2023-09-18T07:30:25;6.60;;;4.07;;
3433;SDS011;1730;41.932;25.548;2023-09-18T07:32:54;3.70;;;3.10;;
3433;SDS011;1730;41.932;25.548;2023-09-18T07:35:23;3.10;;;2.90;;
3433;SDS011;1730;41.932;25.548;2023-09-18T07:37:49;3.50;;;2.83;;
3433;SDS011;1730;41.932;25.548;2023-09-18T07:40:15;3.50;;;2.90;;
3433;SDS011;1730;41.932;25.548;2023-09-18T07:42:43;4.60;;;3.20;;
3433;SDS011;1730;41.932;25.548;2023-09-18T07:45:12;3.67;;;3.20;;
3433;SDS011;1730;41.932;25.548;2023-09-18T07:47:39;3.20;;;2.90;;
3433;SDS011;1730;41.932;25.548;2023-09-18T07:50:05;3.70;;;3.30;;
3433;SDS011;1730;41.932;25.548;2023-09-18T07:52:31;3.83;;;3.53;;
3433;SDS011;1730;41.932;25.548;2023-09-18T07:54:57;3.70;;;3.40;;
3433;SDS011;1730;41.932;25.548;2023-09-18T07:57:24;6.33;;;3.27;;
3433;SDS011;1730;41.932;25.548;2023-09-18T07:59:49;3.70;;;3.40;;
3433;SDS011;1730;41.932;25.548;2023-09-18T08:02:15;3.63;;;3.30;;
3433;SDS011;1730;41.932;25.548;2023-09-18T08:04:42;3.07;;;2.73;;
3433;SDS011;1730;41.932;25.548;2023-09-18T08:07:08;7.87;;;5.43;;
3433;SDS011;1730;41.932;25.548;2023-09-18T08:09:33;18.40;;;9.97;;
3433;SDS011;1730;41.932;25.548;2023-09-18T08:12:05;5.20;;;3.03;;
3433;SDS011;1730;41.932;25.548;2023-09-18T08:14:32;3.00;;;2.80;;
3433;SDS011;1730;41.932;25.548;2023-09-18T08:17:00;3.70;;;3.17;;
3433;SDS011;1730;41.932;25.548;2023-09-18T08:19:28;3.47;;;3.10;;
3433;SDS011;1730;41.932;25.548;2023-09-18T08:21:53;3.40;;;3.20;;
3433;SDS011;1730;41.932;25.548;2023-09-18T08:24:21;4.83;;;3.00;;
3433;SDS011;1730;41.932;25.548;2023-09-18T08:26:47;2.50;;;2.30;;
3433;SDS011;1730;41.932;25.548;2023-09-18T08:29:13;6.13;;;3.90;;
3433;SDS011;1730;41.932;25.548;2023-09-18T08:31:39;3.33;;;3.13;;
3433;SDS011;1730;41.932;25.548;2023-09-18T08:34:05;3.23;;;2.93;;
3433;SDS011;1730;41.932;25.548;2023-09-18T08:36:30;11.60;;;3.30;;
3433;SDS011;1730;41.932;25.548;2023-09-18T08:38:58;5.90;;;4.67;;
3433;SDS011;1730;41.932;25.548;2023-09-18T08:41:24;4.63;;;3.47;;
3433;SDS011;1730;41.932;25.548;2023-09-18T08:43:56;2.90;;;2.70;;
3433;SDS011;1730;41.932;25.548;2023-09-18T08:46:25;4.70;;;2.93;;
3433;SDS011;1730;41.932;25.548;2023-09-18T08:48:51;3.73;;;3.37;;
3433;SDS011;1730;41.932;25.548;2023-09-18T08:51:18;3.23;;;3.03;;
3433;SDS011;1730;41.932;25.548;2023-09-18T08:53:47;5.07;;;2.63;;
3433;SDS011;1730;41.932;25.548;2023-09-18T08:56:13;8.40;;;3.10;;
3433;SDS011;1730;41.932;25.548;2023-09-18T08:58:42;3.47;;;3.17;;
3433;SDS011;1730;41.932;25.548;2023-09-18T09:01:09;5.03;;;3.30;;
3433;SDS011;1730;41.932;25.548;2023-09-18T09:03:39;4.20;;;3.83;;
3433;SDS011;1730;41.932;25.548;2023-09-18T09:06:06;5.10;;;3.47;;
3433;SDS011;1730;41.932;25.548;2023-09-18T09:08:32;3.77;;;3.47;;
3433;SDS011;1730;41.932;25.548;2023-09-18T09:10:59;3.60;;;3.30;;
3433;SDS011;1730;41.932;25.548;2023-09-18T09:13:25;4.07;;;2.83;;
3433;SDS011;1730;41.932;25.548;2023-09-18T09:15:52;3.33;;;3.03;;
3433;SDS011;1730;41.932;25.548;2023-09-18T09:18:25;3.67;;;3.20;;
3433;SDS011;1730;41.932;25.548;2023-09-18T09:20:57;4.80;;;3.40;;
3433;SDS011;1730;41.932;25.548;2023-09-18T09:23:26;3.43;;;2.80;;
3433;SDS011;1730;41.932;25.548;2023-09-18T09:25:53;3.10;;;2.90;;
3433;SDS011;1730;41.932;25.548;2023-09-18T09:28:28;3.00;;;2.80;;
3433;SDS011;1730;41.932;25.548;2023-09-18T09:31:02;3.17;;;2.97;;
3433;SDS011;1730;41.932;25.548;2023-09-18T09:33:28;4.87;;;3.60;;
3433;SDS011;1730;41.932;25.548;2023-09-18T09:35:55;4.83;;;3.10;;
3433;SDS011;1730;41.932;25.548;2023-09-18T09:38:28;6.33;;;2.90;;
3433;SDS011;1730;41.932;25.548;2023-09-18T09:40:56;3.23;;;2.90;;
3433;SDS011;1730;41.932;25.548;2023-09-18T09:43:24;6.17;;;2.80;;
3433;SDS011;1730;41.932;25.548;2023-09-18T09:45:56;3.10;;;2.90;;
3433;SDS011;1730;41.932;25.548;2023-09-18T09:48:23;4.13;;;3.10;;
3433;SDS011;1730;41.932;25.548;2023-09-18T09:50:50;3.50;;;3.13;;
3433;SDS011;1730;41.932;25.548;2023-09-18T09:53:17;3.50;;;2.90;;
3433;SDS011;1730;41.932;25.548;2023-09-18T09:55:43;7.33;;;4.50;;
3433;SDS011;1730;41.932;25.548;2023-09-18T09:58:10;6.90;;;4.30;;
3433;SDS011;1730;41.932;25.548;2023-09-18T10:00:45;3.87;;;3.57;;
3433;SDS011;1730;41.932;25.548;2023-09-18T10:03:18;4.53;;;2.90;;
3433;SDS011;1730;41.932;25.548;2023-09-18T10:05:46;3.00;;;2.63;;
3433;SDS011;1730;41.932;25.548;2023-09-18T10:08:24;3.53;;;3.10;;
3433;SDS011;1730;41.932;25.548;2023-09-18T10:10:52;3.60;;;3.30;;
3433;SDS011;1730;41.932;25.548;2023-09-18T10:13:20;3.53;;;3.33;;
3433;SDS011;1730;41.932;25.548;2023-09-18T10:15:52;3.50;;;3.20;;
3433;SDS011;1730;41.932;25.548;2023-09-18T10:24:10;3.57;;;2.77;;
3433;SDS011;1730;41.932;25.548;2023-09-18T10:26:40;3.00;;;2.80;;
3433;SDS011;1730;41.932;25.548;2023-09-18T10:29:12;3.90;;;3.50;;
3433;SDS011;1730;41.932;25.548;2023-09-18T10:31:39;3.10;;;2.90;;
3433;SDS011;1730;41.932;25.548;2023-09-18T10:34:06;4.13;;;3.80;;
3433;SDS011;1730;41.932;25.548;2023-09-18T10:36:32;3.90;;;3.50;;
3433;SDS011;1730;41.932;25.548;2023-09-18T10:39:00;4.20;;;3.50;;
3433;SDS011;1730;41.932;25.548;2023-09-18T10:41:27;3.20;;;3.00;;
3433;SDS011;1730;41.932;25.548;2023-09-18T10:43:54;3.33;;;3.10;;
3433;SDS011;1730;41.932;25.548;2023-09-18T10:46:22;3.30;;;3.10;;
3433;SDS011;1730;41.932;25.548;2023-09-18T10:48:51;6.17;;;2.67;;
3433;SDS011;1730;41.932;25.548;2023-09-18T10:51:21;3.33;;;3.13;;
3433;SDS011;1730;41.932;25.548;2023-09-18T10:53:48;3.10;;;2.90;;
3433;SDS011;1730;41.932;25.548;2023-09-18T10:56:17;3.40;;;3.10;;
3433;SDS011;1730;41.932;25.548;2023-09-18T10:58:45;4.53;;;3.10;;
3433;SDS011;1730;41.932;25.548;2023-09-18T11:01:13;3.60;;;3.40;;
3433;SDS011;1730;41.932;25.548;2023-09-18T11:03:39;3.53;;;3.33;;
3433;SDS011;1730;41.932;25.548;2023-09-18T11:06:07;5.50;;;5.00;;
3433;SDS011;1730;41.932;25.548;2023-09-18T11:11:11;3.23;;;3.03;;
3433;SDS011;1730;41.932;25.548;2023-09-18T11:13:40;3.20;;;2.87;;
3433;SDS011;1730;41.932;25.548;2023-09-18T11:18:52;4.00;;;3.70;;
3433;SDS011;1730;41.932;25.548;2023-09-18T11:21:32;4.10;;;3.67;;
3433;SDS011;1730;41.932;25.548;2023-09-18T11:26:37;4.60;;;4.00;;
3433;SDS011;1730;41.932;25.548;2023-09-18T11:29:07;4.30;;;4.10;;
3433;SDS011;1730;41.932;25.548;2023-09-18T11:31:45;5.03;;;4.43;;
3433;SDS011;1730;41.932;25.548;2023-09-18T11:34:27;4.60;;;4.13;;
3433;SDS011;1730;41.932;25.548;2023-09-18T11:36:58;3.90;;;3.70;;
3433;SDS011;1730;41.932;25.548;2023-09-18T11:39:34;4.80;;;4.40;;
3433;SDS011;1730;41.932;25.548;2023-09-18T11:42:10;4.90;;;4.00;;
3433;SDS011;1730;41.932;25.548;2023-09-18T11:44:40;9.70;;;4.50;;
3433;SDS011;1730;41.932;25.548;2023-09-18T11:47:15;5.13;;;4.73;;
3433;SDS011;1730;41.932;25.548;2023-09-18T11:49:53;5.20;;;4.80;;
3433;SDS011;1730;41.932;25.548;2023-09-18T11:52:24;5.10;;;4.70;;
3433;SDS011;1730;41.932;25.548;2023-09-18T11:54:50;5.13;;;4.73;;
3433;SDS011;1730;41.932;25.548;2023-09-18T11:57:17;10.33;;;5.30;;
3433;SDS011;1730;41.932;25.548;2023-09-18T11:59:47;9.43;;;5.10;;
3433;SDS011;1730;41.932;25.548;2023-09-18T12:02:13;8.07;;;6.63;;
3433;SDS011;1730;41.932;25.548;2023-09-18T12:05:16;6.07;;;5.30;;
3433;SDS011;1730;41.932;25.548;2023-09-18T12:07:44;6.47;;;5.87;;
3433;SDS011;1730;41.932;25.548;2023-09-18T12:10:11;7.27;;;5.80;;
3433;SDS011;1730;41.932;25.548;2023-09-18T12:12:42;6.33;;;5.93;;
3433;SDS011;1730;41.932;25.548;2023-09-18T12:15:13;5.90;;;5.33;;
3433;SDS011;1730;41.932;25.548;2023-09-18T12:17:42;8.13;;;5.03;;
3433;SDS011;1730;41.932;25.548;2023-09-18T12:20:14;6.63;;;5.60;;
3433;SDS011;1730;41.932;25.548;2023-09-18T12:22:46;7.80;;;5.40;;
3433;SDS011;1730;41.932;25.548;2023-09-18T12:25:15;5.07;;;4.67;;
3433;SDS011;1730;41.932;25.548;2023-09-18T12:27:44;6.60;;;5.27;;
3433;SDS011;1730;41.932;25.548;2023-09-18T12:30:10;9.30;;;4.67;;
3433;SDS011;1730;41.932;25.548;2023-09-18T12:32:37;5.13;;;4.73;;
3433;SDS011;1730;41.932;25.548;2023-09-18T12:35:07;4.90;;;4.60;;
3433;SDS011;1730;41.932;25.548;2023-09-18T12:37:42;4.77;;;4.37;;
3433;SDS011;1730;41.932;25.548;2023-09-18T12:40:20;5.20;;;4.80;;
3433;SDS011;1730;41.932;25.548;2023-09-18T12:42:47;5.23;;;4.93;;
3433;SDS011;1730;41.932;25.548;2023-09-18T12:45:12;5.70;;;5.30;;
3433;SDS011;1730;41.932;25.548;2023-09-18T12:47:38;5.13;;;4.63;;
3433;SDS011;1730;41.932;25.548;2023-09-18T12:50:06;4.70;;;4.23;;
3433;SDS011;1730;41.932;25.548;2023-09-18T12:52:32;4.37;;;4.10;;
3433;SDS011;1730;41.932;25.548;2023-09-18T12:54:58;4.80;;;4.50;;
3433;SDS011;1730;41.932;25.548;2023-09-18T12:57:29;5.40;;;3.90;;
3433;SDS011;1730;41.932;25.548;2023-09-18T12:59:55;5.13;;;4.50;;
3433;SDS011;1730;41.932;25.548;2023-09-18T13:02:21;5.30;;;4.70;;
3433;SDS011;1730;41.932;25.548;2023-09-18T13:04:56;4.40;;;4.00;;
3433;SDS011;1730;41.932;25.548;2023-09-18T13:07:23;5.53;;;4.40;;
3433;SDS011;1730;41.932;25.548;2023-09-18T13:10:01;4.43;;;3.83;;
3433;SDS011;1730;41.932;25.548;2023-09-18T13:12:56;5.40;;;4.33;;
3433;SDS011;1730;41.932;25.548;2023-09-18T13:15:26;4.80;;;4.50;;
3433;SDS011;1730;41.932;25.548;2023-09-18T13:17:53;8.73;;;3.70;;
3433;SDS011;1730;41.932;25.548;2023-09-18T13:20:23;3.80;;;3.50;;
3433;SDS011;1730;41.932;25.548;2023-09-18T13:22:52;4.87;;;4.47;;
3433;SDS011;1730;41.932;25.548;2023-09-18T13:25:22;4.83;;;4.10;;
3433;SDS011;1730;41.932;25.548;2023-09-18T13:27:50;4.20;;;3.90;;
3433;SDS011;1730;41.932;25.548;2023-09-18T13:30:16;4.90;;;4.60;;
3433;SDS011;1730;41.932;25.548;2023-09-18T13:32:43;4.83;;;4.43;;
3433;SDS011;1730;41.932;25.548;2023-09-18T13:35:09;4.80;;;4.50;;
3433;SDS011;1730;41.932;25.548;2023-09-18T13:37:38;4.60;;;4.20;;
3433;SDS011;1730;41.932;25.548;2023-09-18T13:40:05;13.63;;;4.67;;
3433;SDS011;1730;41.932;25.548;2023-09-18T13:42:32;4.50;;;4.20;;
3433;SDS011;1730;41.932;25.548;2023-09-18T13:44:58;9.43;;;5.07;;
3433;SDS011;1730;41.932;25.548;2023-09-18T13:47:28;4.73;;;4.33;;
3433;SDS011;1730;41.932;25.548;2023-09-18T13:49:54;4.27;;;3.70;;
3433;SDS011;1730;41.932;25.548;2023-09-18T13:52:28;6.00;;;4.70;;
3433;SDS011;1730;41.932;25.548;2023-09-18T13:54:55;4.77;;;4.37;;
3433;SDS011;1730;41.932;25.548;2023-09-18T13:57:20;5.20;;;4.33;;
3433;SDS011;1730;41.932;25.548;2023-09-18T13:59:46;8.77;;;4.43;;
3433;SDS011;1730;41.932;25.548;2023-09-18T14:02:14;7.03;;;5.03;;
3433;SDS011;1730;41.932;25.548;2023-09-18T14:04:40;6.07;;;4.13;;
3433;SDS011;1730;41.932;25.548;2023-09-18T14:07:06;5.20;;;4.70;;
3433;SDS011;1730;41.932;25.548;2023-09-18T14:09:33;6.83;;;3.93;;
3433;SDS011;1730;41.932;25.548;2023-09-18T14:11:59;4.47;;;4.17;;
3433;SDS011;1730;41.932;25.548;2023-09-18T14:14:24;4.73;;;4.33;;
3433;SDS011;1730;41.932;25.548;2023-09-18T14:16:50;5.67;;;4.57;;
3433;SDS011;1730;41.932;25.548;2023-09-18T14:19:17;4.50;;;4.20;;
3433;SDS011;1730;41.932;25.548;2023-09-18T14:21:44;6.00;;;4.73;;
3433;SDS011;1730;41.932;25.548;2023-09-18T14:24:10;5.17;;;4.87;;
3433;SDS011;1730;41.932;25.548;2023-09-18T14:26:36;4.90;;;3.93;;
3433;SDS011;1730;41.932;25.548;2023-09-18T14:29:07;5.70;;;4.23;;
3433;SDS011;1730;41.932;25.548;2023-09-18T14:31:33;4.63;;;4.23;;
3433;SDS011;1730;41.932;25.548;2023-09-18T14:33:59;5.67;;;4.67;;
3433;SDS011;1730;41.932;25.548;2023-09-18T14:36:25;4.93;;;4.33;;
3433;SDS011;1730;41.932;25.548;2023-09-18T14:38:51;5.43;;;4.93;;
3433;SDS011;1730;41.932;25.548;2023-09-18T14:41:17;6.17;;;5.57;;
3433;SDS011;1730;41.932;25.548;2023-09-18T14:43:44;5.43;;;4.47;;
3433;SDS011;1730;41.932;25.548;2023-09-18T14:46:10;3.97;;;3.67;;
3433;SDS011;1730;41.932;25.548;2023-09-18T14:48:35;4.60;;;4.30;;
3433;SDS011;1730;41.932;25.548;2023-09-18T14:51:01;6.60;;;4.20;;
3433;SDS011;1730;41.932;25.548;2023-09-18T14:53:27;4.53;;;3.87;;
3433;SDS011;1730;41.932;25.548;2023-09-18T14:55:53;4.37;;;4.00;;
3433;SDS011;1730;41.932;25.548;2023-09-18T14:58:20;5.27;;;4.87;;
3433;SDS011;1730;41.932;25.548;2023-09-18T15:00:49;4.07;;;3.80;;
3433;SDS011;1730;41.932;25.548;2023-09-18T15:03:15;7.10;;;4.47;;
3433;SDS011;1730;41.932;25.548;2023-09-18T15:05:41;5.63;;;4.97;;
3433;SDS011;1730;41.932;25.548;2023-09-18T15:08:07;5.07;;;4.67;;
3433;SDS011;1730;41.932;25.548;2023-09-18T15:10:33;5.13;;;4.63;;
3433;SDS011;1730;41.932;25.548;2023-09-18T15:12:59;5.33;;;4.60;;
3433;SDS011;1730;41.932;25.548;2023-09-18T15:15:26;7.63;;;5.70;;
3433;SDS011;1730;41.932;25.548;2023-09-18T15:17:51;5.60;;;4.43;;
3433;SDS011;1730;41.932;25.548;2023-09-18T15:20:17;13.33;;;6.50;;
3433;SDS011;1730;41.932;25.548;2023-09-18T15:22:44;4.83;;;4.53;;
3433;SDS011;1730;41.932;25.548;2023-09-18T15:25:10;7.90;;;7.10;;
3433;SDS011;1730;41.932;25.548;2023-09-18T15:27:36;9.40;;;4.40;;
3433;SDS011;1730;41.932;25.548;2023-09-18T15:30:03;4.30;;;3.90;;
3433;SDS011;1730;41.932;25.548;2023-09-18T15:32:32;4.23;;;3.57;;
3433;SDS011;1730;41.932;25.548;2023-09-18T15:35:13;4.20;;;3.30;;
3433;SDS011;1730;41.932;25.548;2023-09-18T15:37:39;3.60;;;3.30;;